createdAt,value
2019-05-11T00:00:11.617Z,3.47
2019-05-11T00:02:39.342Z,6.40
2019-05-11T00:05:07.122Z,4.50
2019-05-11T00:07:34.809Z,5.22
2019-05-11T00:10:03.076Z,3.85
2019-05-11T00:12:32.851Z,4.85
2019-05-11T00:15:00.564Z,4.15
2019-05-11T00:17:28.279Z,5.12
2019-05-11T00:19:55.978Z,5.45
2019-05-11T00:22:23.583Z,6.30
2019-05-11T00:24:51.211Z,6.85
2019-05-11T00:27:18.906Z,5.62
2019-05-11T00:29:46.561Z,7.25
2019-05-11T00:32:14.215Z,4.70
2019-05-11T00:34:41.996Z,5.17
2019-05-11T00:37:09.825Z,7.70
2019-05-11T00:39:37.475Z,5.30
2019-05-11T00:42:05.171Z,5.55
2019-05-11T00:44:32.847Z,5.67
2019-05-11T00:47:00.561Z,7.60
2019-05-11T00:49:28.256Z,6.75
2019-05-11T00:51:56.075Z,5.83
2019-05-11T00:54:23.761Z,7.50
2019-05-11T00:56:51.379Z,5.10
2019-05-11T00:59:21.671Z,4.47
2019-05-11T01:01:48.620Z,5.92
2019-05-11T01:04:16.150Z,5.28
2019-05-11T01:06:43.974Z,5.58
2019-05-11T01:09:11.671Z,5.20
2019-05-11T01:11:39.304Z,4.83
2019-05-11T01:14:08.269Z,5.42
2019-05-11T01:16:37.207Z,6.53
2019-05-11T01:19:04.855Z,5.97
2019-05-11T01:21:34.477Z,6.42
2019-05-11T01:24:02.084Z,6.08
2019-05-11T01:26:30.073Z,4.55
2019-05-11T01:28:57.841Z,7.03
2019-05-11T01:31:25.528Z,6.12
2019-05-11T01:33:53.382Z,6.37
2019-05-11T01:36:21.077Z,7.00
2019-05-11T01:38:48.730Z,7.83
2019-05-11T01:41:16.362Z,9.80
2019-05-11T01:43:44.009Z,8.73
2019-05-11T01:46:12.821Z,6.62
2019-05-11T01:48:41.762Z,8.10
2019-05-11T01:51:09.371Z,8.68
2019-05-11T01:53:37.209Z,8.63
2019-05-11T01:56:05.093Z,7.20
2019-05-11T01:58:32.743Z,8.10
2019-05-11T02:01:00.556Z,10.63
2019-05-11T02:03:28.214Z,9.08
2019-05-11T02:05:55.882Z,10.23
2019-05-11T02:08:23.501Z,7.12
2019-05-11T02:10:51.131Z,8.83
2019-05-11T02:13:20.195Z,9.13
2019-05-11T02:15:48.112Z,10.70
2019-05-11T02:18:15.787Z,9.05
2019-05-11T02:20:43.566Z,8.60
2019-05-11T02:23:11.388Z,8.03
2019-05-11T02:25:39.045Z,10.20
2019-05-11T02:28:06.794Z,8.95
2019-05-11T02:30:34.389Z,10.35
2019-05-11T02:33:02.086Z,11.10
2019-05-11T02:35:29.873Z,12.00
2019-05-11T02:37:57.480Z,8.18
2019-05-11T02:40:25.449Z,10.63
2019-05-11T02:42:54.118Z,8.38
2019-05-11T02:45:41.898Z,9.05
2019-05-11T02:48:10.229Z,11.43
2019-05-11T02:50:39.206Z,9.25
2019-05-11T02:53:08.258Z,12.35
2019-05-11T02:55:36.450Z,9.15
2019-05-11T02:58:05.191Z,7.35
2019-05-11T03:00:38.556Z,8.58
2019-05-11T03:03:07.215Z,9.73
2019-05-11T03:05:34.959Z,8.70
2019-05-11T03:08:02.750Z,7.70
2019-05-11T03:10:30.427Z,8.95
2019-05-11T03:12:58.141Z,9.28
2019-05-11T03:15:25.925Z,9.45
2019-05-11T03:17:53.585Z,8.88
2019-05-11T03:20:21.363Z,10.28
2019-05-11T03:22:49.002Z,10.95
2019-05-11T03:25:16.705Z,10.68
2019-05-11T03:27:44.356Z,9.90
2019-05-11T03:30:12.296Z,7.92
2019-05-11T03:32:40.034Z,6.50
2019-05-11T03:35:07.938Z,8.15
2019-05-11T03:37:35.795Z,9.58
2019-05-11T03:40:03.739Z,7.85
2019-05-11T03:42:31.417Z,7.35
2019-05-11T03:44:59.286Z,9.20
2019-05-11T03:47:27.290Z,8.25
2019-05-11T03:49:55.031Z,7.78
2019-05-11T03:52:22.683Z,9.88
2019-05-11T03:54:51.433Z,8.25
2019-05-11T03:57:19.195Z,6.65
2019-05-11T03:59:47.040Z,9.05
2019-05-11T04:02:17.062Z,7.40
2019-05-11T04:04:44.839Z,8.38
2019-05-11T04:07:12.925Z,7.87
2019-05-11T04:09:40.829Z,8.08
2019-05-11T04:12:08.520Z,7.08
2019-05-11T04:14:36.294Z,7.62
2019-05-11T04:17:04.048Z,9.35
2019-05-11T04:19:31.763Z,8.53
2019-05-11T04:21:59.693Z,8.10
2019-05-11T04:24:27.368Z,7.65
2019-05-11T04:26:55.026Z,7.83
2019-05-11T04:29:25.906Z,9.45
2019-05-11T04:31:54.699Z,9.18
2019-05-11T04:34:22.432Z,11.57
2019-05-11T04:36:52.716Z,11.95
2019-05-11T04:39:20.357Z,12.25
2019-05-11T04:41:48.141Z,13.68
2019-05-11T04:44:15.862Z,15.58
2019-05-11T04:46:43.499Z,13.95
2019-05-11T04:49:11.205Z,15.78
2019-05-11T04:51:38.848Z,14.25
2019-05-11T04:54:09.820Z,15.00
2019-05-11T04:56:37.637Z,16.77
2019-05-11T04:59:05.427Z,16.95
2019-05-11T05:01:33.333Z,17.23
2019-05-11T05:04:13.433Z,19.70
2019-05-11T05:06:30.747Z,17.73
2019-05-11T05:09:03.713Z,17.55
2019-05-11T05:11:30.758Z,19.52
2019-05-11T05:14:01.772Z,22.25
2019-05-11T05:16:31.211Z,22.32
2019-05-11T05:18:57.619Z,21.42
2019-05-11T05:21:25.306Z,24.87
2019-05-11T05:23:53.018Z,25.52
2019-05-11T05:26:20.845Z,25.40
2019-05-11T05:28:48.576Z,25.60
2019-05-11T05:31:16.357Z,25.75
2019-05-11T05:33:44.295Z,26.02
2019-05-11T05:36:11.966Z,25.25
2019-05-11T05:38:39.696Z,29.30
2019-05-11T05:41:07.456Z,28.62
2019-05-11T05:43:35.097Z,25.02
2019-05-11T05:46:02.814Z,24.90
2019-05-11T05:48:30.622Z,24.52
2019-05-11T05:50:58.353Z,23.60
2019-05-11T05:53:28.128Z,25.25
2019-05-11T05:55:56.144Z,23.42
2019-05-11T05:58:24.533Z,23.67
2019-05-11T06:00:52.310Z,24.25
2019-05-11T06:03:20.027Z,24.37
2019-05-11T06:05:48.041Z,23.18
2019-05-11T06:08:16.038Z,24.87
2019-05-11T06:10:45.930Z,25.77
2019-05-11T06:13:16.874Z,25.32
2019-05-11T06:15:44.752Z,26.65
2019-05-11T06:18:12.641Z,25.97
2019-05-11T06:20:40.482Z,25.75
2019-05-11T06:23:08.490Z,23.40
2019-05-11T06:25:36.180Z,27.20
2019-05-11T06:28:03.805Z,26.82
2019-05-11T06:30:31.576Z,26.57
2019-05-11T06:32:59.419Z,29.55
2019-05-11T06:35:27.344Z,26.42
2019-05-11T06:37:59.960Z,24.80
2019-05-11T06:40:28.684Z,30.17
2019-05-11T06:42:56.680Z,29.15
2019-05-11T06:45:24.453Z,29.27
2019-05-11T06:47:52.159Z,33.05
2019-05-11T06:50:19.950Z,30.50
2019-05-11T06:52:48.270Z,29.67
2019-05-11T06:55:16.401Z,31.60
2019-05-11T06:57:44.084Z,30.40
2019-05-11T07:00:12.465Z,31.15
2019-05-11T07:02:41.650Z,30.72
2019-05-11T07:05:09.440Z,32.03
2019-05-11T07:07:47.139Z,29.50
2019-05-11T07:10:08.063Z,30.12
2019-05-11T07:12:36.025Z,28.38
2019-05-11T07:15:04.311Z,24.77
2019-05-11T07:17:31.984Z,27.90
2019-05-11T07:20:00.095Z,27.27
2019-05-11T07:22:27.753Z,25.97
2019-05-11T07:24:58.993Z,26.33
2019-05-11T07:27:26.674Z,26.17
2019-05-11T07:29:55.024Z,28.87
2019-05-11T07:32:26.139Z,27.20
2019-05-11T07:34:54.664Z,25.90
2019-05-11T07:37:24.430Z,27.07
2019-05-11T07:39:52.071Z,28.02
2019-05-11T07:42:20.089Z,27.32
2019-05-11T07:44:48.225Z,25.00
2019-05-11T07:47:18.503Z,25.92
2019-05-11T07:49:48.699Z,24.95
2019-05-11T07:52:18.022Z,24.85
2019-05-11T07:54:51.851Z,25.97
2019-05-11T07:57:15.319Z,21.20
2019-05-11T07:59:43.038Z,22.22
2019-05-11T08:02:10.827Z,17.57
2019-05-11T08:04:38.668Z,17.82
2019-05-11T08:07:07.691Z,18.55
2019-05-11T08:09:38.266Z,19.00
2019-05-11T08:12:08.743Z,15.25
2019-05-11T08:14:55.155Z,17.42
2019-05-11T08:17:08.671Z,17.55
2019-05-11T08:19:38.420Z,15.88
2019-05-11T08:22:08.468Z,16.82
2019-05-11T08:24:37.746Z,13.78
2019-05-11T08:27:05.642Z,13.15
2019-05-11T08:29:33.357Z,13.78
2019-05-11T08:32:01.186Z,12.25
2019-05-11T08:34:28.887Z,13.03
2019-05-11T08:36:58.421Z,11.97
2019-05-11T08:39:28.669Z,12.47
2019-05-11T08:41:56.243Z,13.25
2019-05-11T08:44:24.132Z,11.20
2019-05-11T08:46:51.823Z,12.13
2019-05-11T08:49:19.658Z,13.10
2019-05-11T08:51:47.925Z,14.55
2019-05-11T08:54:18.111Z,13.65
2019-05-11T08:56:45.399Z,12.35
2019-05-11T08:59:12.999Z,12.28
2019-05-11T09:01:40.807Z,12.15
2019-05-11T09:04:09.307Z,10.48
2019-05-11T09:06:39.124Z,9.85
2019-05-11T09:09:08.898Z,9.78
2019-05-11T09:11:38.820Z,9.65
2019-05-11T09:14:08.235Z,10.03
2019-05-11T09:16:38.089Z,8.80
2019-05-11T09:19:05.489Z,9.83
2019-05-11T09:21:33.363Z,11.43
2019-05-11T09:24:01.228Z,12.85
2019-05-11T09:26:28.924Z,12.13
2019-05-11T09:28:58.255Z,10.55
2019-05-11T09:31:27.958Z,12.43
2019-05-11T09:33:58.414Z,10.58
2019-05-11T09:36:28.672Z,12.95
2019-05-11T09:38:58.147Z,12.35
2019-05-11T09:41:28.909Z,10.43
2019-05-11T09:43:58.702Z,14.43
2019-05-11T09:46:27.891Z,14.63
2019-05-11T09:48:55.705Z,12.95
2019-05-11T09:51:23.617Z,13.20
2019-05-11T09:53:51.240Z,12.43
2019-05-11T09:56:19.009Z,17.75
2019-05-11T09:58:47.944Z,11.90
2019-05-11T10:01:18.046Z,10.90
2019-05-11T10:03:47.889Z,11.20
2019-05-11T10:06:15.232Z,12.45
2019-05-11T10:08:42.932Z,10.43
2019-05-11T10:11:10.725Z,9.13
2019-05-11T10:13:38.632Z,11.03
2019-05-11T10:16:10.178Z,10.95
2019-05-11T10:18:38.386Z,14.13
2019-05-11T10:21:07.943Z,11.93
2019-05-11T10:23:35.426Z,9.78
2019-05-11T10:26:04.385Z,9.73
2019-05-11T10:28:32.142Z,10.80
2019-05-11T10:30:59.959Z,9.95
2019-05-11T10:33:28.302Z,10.18
2019-05-11T10:35:56.059Z,10.03
2019-05-11T10:38:23.831Z,12.45
2019-05-11T10:40:51.426Z,10.05
2019-05-11T10:43:19.424Z,10.85
2019-05-11T10:45:48.337Z,13.08
2019-05-11T10:48:17.850Z,13.10
2019-05-11T10:50:48.241Z,13.08
2019-05-11T10:53:15.418Z,10.32
2019-05-11T10:55:43.188Z,10.45
2019-05-11T10:58:10.859Z,9.23
2019-05-11T11:00:39.070Z,10.63
2019-05-11T11:03:08.487Z,8.43
2019-05-11T11:05:38.455Z,10.70
2019-05-11T11:08:08.334Z,8.65
2019-05-11T11:10:37.895Z,9.90
2019-05-11T11:13:05.541Z,8.60
2019-05-11T11:15:33.319Z,9.70
2019-05-11T11:18:03.480Z,11.65
2019-05-11T11:20:33.672Z,12.70
2019-05-11T11:23:01.469Z,10.45
2019-05-11T11:25:29.288Z,7.37
2019-05-11T11:27:57.832Z,6.40
2019-05-11T11:30:25.682Z,6.85
2019-05-11T11:32:53.507Z,5.50
2019-05-11T11:35:21.266Z,5.25
2019-05-11T11:37:49.105Z,4.20
2019-05-11T11:40:17.720Z,4.22
2019-05-11T11:42:47.626Z,5.10
2019-05-11T11:45:15.446Z,4.45
2019-05-11T11:47:43.291Z,3.60
2019-05-11T11:50:11.222Z,3.65
2019-05-11T11:52:39.030Z,3.65
2019-05-11T11:55:08.428Z,2.92
2019-05-11T11:57:38.007Z,3.22
2019-05-11T12:00:09.131Z,4.03
2019-05-11T12:02:39.211Z,5.10
2019-05-11T12:05:08.819Z,7.12
2019-05-11T12:07:38.491Z,4.28
2019-05-11T12:10:07.769Z,3.85
2019-05-11T12:12:35.778Z,6.50
2019-05-11T12:15:04.934Z,3.58
2019-05-11T12:17:32.555Z,4.30
2019-05-11T12:20:00.301Z,3.85
2019-05-11T12:22:28.497Z,3.72
2019-05-11T12:24:58.745Z,4.03
2019-05-11T12:27:25.757Z,6.00
2019-05-11T12:29:54.139Z,6.60
2019-05-11T12:32:27.816Z,5.62
2019-05-11T12:34:55.599Z,4.75
2019-05-11T12:37:23.286Z,3.50
2019-05-11T12:39:50.902Z,4.12
2019-05-11T12:42:18.603Z,3.52
2019-05-11T12:44:48.148Z,3.70
2019-05-11T12:47:22.191Z,2.85
2019-05-11T12:49:45.445Z,3.52
2019-05-11T12:52:13.858Z,2.72
2019-05-11T12:54:41.583Z,3.83
2019-05-11T12:57:09.279Z,5.45
2019-05-11T12:59:38.166Z,3.95
2019-05-11T13:02:08.120Z,4.35
2019-05-11T13:04:35.781Z,3.30
2019-05-11T13:07:29.600Z,4.95
2019-05-11T13:09:58.010Z,4.20
2019-05-11T13:12:27.887Z,4.67
2019-05-11T13:14:57.891Z,3.55
2019-05-11T13:17:36.659Z,6.12
2019-05-11T13:19:54.911Z,4.20
2019-05-11T13:22:22.592Z,3.70
2019-05-11T13:24:50.298Z,6.40
2019-05-11T13:27:18.153Z,5.22
2019-05-11T13:29:48.620Z,5.70
2019-05-11T13:32:18.561Z,4.15
2019-05-11T13:34:48.005Z,3.25
2019-05-11T13:37:16.012Z,3.25
2019-05-11T13:39:43.790Z,3.17
2019-05-11T13:42:12.908Z,4.05
2019-05-11T13:44:40.839Z,3.62
2019-05-11T13:47:08.703Z,2.80
2019-05-11T13:49:39.367Z,3.00
2019-05-11T13:52:08.653Z,3.65
2019-05-11T13:54:37.679Z,4.45
2019-05-11T13:57:07.826Z,5.33
2019-05-11T13:59:34.976Z,6.80
2019-05-11T14:02:08.065Z,2.98
2019-05-11T14:04:35.117Z,3.02
2019-05-11T14:07:03.123Z,2.83
2019-05-11T14:09:30.832Z,4.12
2019-05-11T14:11:58.543Z,2.95
2019-05-11T14:14:28.771Z,3.15
2019-05-11T14:16:58.756Z,3.15
2019-05-11T14:19:28.976Z,2.90
2019-05-11T14:21:57.979Z,3.22
2019-05-11T14:24:25.736Z,2.98
2019-05-11T14:26:53.484Z,3.95
2019-05-11T14:29:22.441Z,3.62
2019-05-11T14:31:50.246Z,3.85
2019-05-11T14:34:18.332Z,3.02
2019-05-11T14:36:48.015Z,4.90
2019-05-11T14:39:15.979Z,2.40
2019-05-11T14:41:45.551Z,2.17
2019-05-11T14:44:13.193Z,3.72
2019-05-11T14:46:40.948Z,3.65
2019-05-11T14:49:08.632Z,2.65
2019-05-11T14:51:38.839Z,4.70
2019-05-11T14:54:08.126Z,3.00
2019-05-11T14:56:37.796Z,3.17
2019-05-11T14:59:05.373Z,4.00
2019-05-11T15:01:33.334Z,3.35
2019-05-11T15:04:01.033Z,3.10
2019-05-11T15:06:28.713Z,2.67
2019-05-11T15:08:58.246Z,4.70
2019-05-11T15:11:28.041Z,3.60
2019-05-11T15:13:57.556Z,2.95
2019-05-11T15:16:27.733Z,2.33
2019-05-11T15:18:58.618Z,2.67
2019-05-11T15:21:28.091Z,3.10
2019-05-11T15:23:57.963Z,3.62
2019-05-11T15:26:27.640Z,2.70
2019-05-11T15:28:55.321Z,2.92
2019-05-11T15:31:23.167Z,3.17
2019-05-11T15:33:51.066Z,3.33
2019-05-11T15:36:20.256Z,3.00
2019-05-11T15:38:48.254Z,5.30
2019-05-11T15:41:17.647Z,3.98
2019-05-11T15:43:48.018Z,5.28
2019-05-11T15:46:19.457Z,4.00
2019-05-11T15:48:58.541Z,4.08
2019-05-11T15:51:15.315Z,4.33
2019-05-11T15:53:43.280Z,4.75
2019-05-11T15:56:10.988Z,4.20
2019-05-11T15:58:38.700Z,4.10
2019-05-11T16:01:07.992Z,4.90
2019-05-11T16:03:36.945Z,5.00
2019-05-11T16:06:04.662Z,4.55
2019-05-11T16:08:32.685Z,5.12
2019-05-11T16:11:00.375Z,6.30
2019-05-11T16:13:28.618Z,6.60
2019-05-11T16:15:57.743Z,7.28
2019-05-11T16:18:26.331Z,5.97
2019-05-11T16:20:54.146Z,5.33
2019-05-11T16:23:21.901Z,6.17
2019-05-11T16:25:49.589Z,6.85
2019-05-11T16:28:19.349Z,6.50
2019-05-11T16:30:48.155Z,6.28
2019-05-11T16:33:17.994Z,6.45
2019-05-11T16:35:45.980Z,5.45
2019-05-11T16:38:13.803Z,5.30
2019-05-11T16:40:41.543Z,5.30
2019-05-11T16:43:09.234Z,5.10
2019-05-11T16:45:37.072Z,6.80
2019-05-11T16:48:04.764Z,5.20
2019-05-11T16:50:32.496Z,5.35
2019-05-11T16:53:02.859Z,5.83
2019-05-11T16:55:33.925Z,4.62
2019-05-11T16:58:01.675Z,4.97
2019-05-11T17:00:29.470Z,4.75
2019-05-11T17:02:57.794Z,4.67
2019-05-11T17:05:33.295Z,6.95
2019-05-11T17:07:59.061Z,5.60
2019-05-11T17:10:28.425Z,6.90
2019-05-11T17:12:58.885Z,5.35
2019-05-11T17:15:28.706Z,6.45
2019-05-11T17:17:58.556Z,6.05
2019-05-11T17:20:27.698Z,7.03
2019-05-11T17:22:55.583Z,4.78
2019-05-11T17:25:23.319Z,4.67
2019-05-11T17:27:51.189Z,5.60
2019-05-11T17:30:19.838Z,5.20
2019-05-11T17:32:49.237Z,4.03
2019-05-11T17:35:17.780Z,4.72
2019-05-11T17:37:48.173Z,4.30
2019-05-11T17:40:20.592Z,4.12
2019-05-11T17:42:48.068Z,6.25
2019-05-11T17:45:15.834Z,4.05
2019-05-11T17:47:43.529Z,4.97
2019-05-11T17:50:13.757Z,4.10
2019-05-11T17:52:41.521Z,4.30
2019-05-11T17:55:09.621Z,5.20
2019-05-11T17:57:38.202Z,5.35
2019-05-11T18:00:07.024Z,3.40
2019-05-11T18:02:35.012Z,3.40
2019-05-11T18:05:04.485Z,3.92
2019-05-11T18:07:32.283Z,8.10
2019-05-11T18:10:00.935Z,4.35
2019-05-11T18:12:28.763Z,4.10
2019-05-11T18:14:58.563Z,2.95
2019-05-11T18:17:26.541Z,3.95
2019-05-11T18:19:54.377Z,4.92
2019-05-11T18:22:24.526Z,3.75
2019-05-11T18:24:52.262Z,3.25
2019-05-11T18:27:20.056Z,4.85
2019-05-11T18:29:48.945Z,4.00
2019-05-11T18:32:16.647Z,6.12
2019-05-11T18:34:44.414Z,8.28
2019-05-11T18:37:12.406Z,7.28
2019-05-11T18:39:40.119Z,4.75
2019-05-11T18:42:08.320Z,5.08
2019-05-11T18:44:38.003Z,4.28
2019-05-11T18:47:05.819Z,5.55
2019-05-11T18:49:33.535Z,3.55
2019-05-11T18:52:02.583Z,4.40
2019-05-11T18:54:30.463Z,4.72
2019-05-11T18:56:58.894Z,4.83
2019-05-11T18:59:28.389Z,4.35
2019-05-11T19:01:58.483Z,5.90
2019-05-11T19:04:25.912Z,5.75
2019-05-11T19:06:55.012Z,4.75
2019-05-11T19:09:24.162Z,10.35
2019-05-11T19:11:51.918Z,4.65
2019-05-11T19:14:19.830Z,5.83
2019-05-11T19:16:49.169Z,4.22
2019-05-11T19:19:18.297Z,8.08
2019-05-11T19:21:48.184Z,6.67
2019-05-11T19:24:15.964Z,5.60
2019-05-11T19:26:43.666Z,5.78
2019-05-11T19:29:11.623Z,6.47
2019-05-11T19:31:39.473Z,5.75
2019-05-11T19:34:07.169Z,7.05
2019-05-11T19:36:35.090Z,4.50
2019-05-11T19:39:05.139Z,5.10
2019-05-11T19:41:32.789Z,3.98
2019-05-11T19:44:00.471Z,6.47
2019-05-11T19:46:28.242Z,6.05
2019-05-11T19:48:58.017Z,4.75
2019-05-11T19:51:25.745Z,6.20
2019-05-11T19:53:53.560Z,7.10
2019-05-11T19:56:21.392Z,5.62
2019-05-11T19:58:49.126Z,5.72
2019-05-11T20:01:18.755Z,6.30
2019-05-11T20:03:46.376Z,5.40
2019-05-11T20:06:14.340Z,6.60
2019-05-11T20:08:42.087Z,7.70
2019-05-11T20:11:09.990Z,6.45
2019-05-11T20:13:38.832Z,7.35
2019-05-11T20:16:08.294Z,9.48
2019-05-11T20:18:36.322Z,5.22
2019-05-11T20:21:16.625Z,6.65
2019-05-11T20:23:34.687Z,9.38
2019-05-11T20:26:02.347Z,5.87
2019-05-11T20:28:30.037Z,6.12
2019-05-11T20:30:58.777Z,11.75
2019-05-11T20:33:28.031Z,6.90
2019-05-11T20:35:58.048Z,7.37
2019-05-11T20:38:27.864Z,10.55
2019-05-11T20:40:57.610Z,6.85
2019-05-11T20:43:27.699Z,8.63
2019-05-11T20:45:56.265Z,10.35
2019-05-11T20:48:24.198Z,9.08
2019-05-11T20:50:51.908Z,10.13
2019-05-11T20:53:19.673Z,8.85
2019-05-11T20:55:47.843Z,10.35
2019-05-11T20:58:18.913Z,10.15
2019-05-11T21:00:45.511Z,7.58
2019-05-11T21:03:14.328Z,11.45
2019-05-11T21:05:41.997Z,9.18
2019-05-11T21:08:09.807Z,12.05
2019-05-11T21:10:38.559Z,9.65
2019-05-11T21:13:08.542Z,8.68
2019-05-11T21:15:38.437Z,8.35
2019-05-11T21:18:07.942Z,9.95
2019-05-11T21:20:38.077Z,9.70
2019-05-11T21:23:05.445Z,16.20
2019-05-11T21:25:33.333Z,9.70
2019-05-11T21:28:01.070Z,11.95
2019-05-11T21:30:28.734Z,8.73
2019-05-11T21:32:58.289Z,10.40
2019-05-11T21:35:28.121Z,13.05
2019-05-11T21:37:58.006Z,10.78
2019-05-11T21:40:25.664Z,11.60
2019-05-11T21:42:53.551Z,13.28
2019-05-11T21:45:23.734Z,13.20
2019-05-11T21:47:51.453Z,10.63
2019-05-11T21:50:19.433Z,10.80
2019-05-11T21:52:48.417Z,13.32
2019-05-11T21:55:16.515Z,9.73
2019-05-11T21:57:44.281Z,11.05
2019-05-11T22:00:12.777Z,12.58
2019-05-11T22:02:42.431Z,13.20
2019-05-11T22:05:11.382Z,12.82
2019-05-11T22:07:41.928Z,12.13
2019-05-11T22:10:09.486Z,14.70
2019-05-11T22:12:39.551Z,11.33
2019-05-11T22:15:09.187Z,13.28
2019-05-11T22:17:39.284Z,11.85
2019-05-11T22:20:11.590Z,13.72
2019-05-11T22:22:39.730Z,18.87
2019-05-11T22:25:08.123Z,10.53
2019-05-11T22:27:38.396Z,13.78
2019-05-11T22:30:08.173Z,11.20
2019-05-11T22:32:38.036Z,15.03
2019-05-11T22:35:05.025Z,12.47
2019-05-11T22:37:32.774Z,10.85
2019-05-11T22:40:00.477Z,12.53
2019-05-11T22:42:28.302Z,13.03
2019-05-11T22:44:56.002Z,11.85
2019-05-11T22:47:25.406Z,10.48
2019-05-11T22:49:53.022Z,13.28
2019-05-11T22:52:32.849Z,13.30
2019-05-11T22:54:50.446Z,11.35
2019-05-11T22:57:18.176Z,14.03
2019-05-11T22:59:47.496Z,11.85
2019-05-11T23:02:15.284Z,17.77
2019-05-11T23:04:43.063Z,14.68
2019-05-11T23:07:10.941Z,15.90
2019-05-11T23:09:38.698Z,12.63
2019-05-11T23:12:28.403Z,15.20
2019-05-11T23:15:24.211Z,12.43
2019-05-11T23:17:51.925Z,13.58
2019-05-11T23:20:20.694Z,15.95
2019-05-11T23:22:56.723Z,15.08
2019-05-11T23:25:18.448Z,14.83
2019-05-11T23:27:48.624Z,13.08
2019-05-11T23:30:20.277Z,16.37
2019-05-11T23:32:48.721Z,15.70
2019-05-11T23:35:19.316Z,24.18
2019-05-11T23:37:49.341Z,15.32
2019-05-11T23:40:20.795Z,13.83
2019-05-11T23:42:49.166Z,14.35
2019-05-11T23:45:18.842Z,15.90
2019-05-11T23:47:48.634Z,14.05
2019-05-11T23:50:18.835Z,14.98
2019-05-11T23:52:48.807Z,12.65
2019-05-11T23:55:18.664Z,16.97
2019-05-11T23:57:48.032Z,13.90
